Time;durP1;ratioP1;P1;durP2;ratioP2;P2;SDS_P1;SDS_P2;PMS_P1;PMS_P2;Temp;Humidity;BMP_temperature;BMP_pressure;BME280_temperature;BME280_humidity;BME280_pressure;Samples;Min_cycle;Max_cycle;Signal;HPM_P1;HPM_P2
2021/05/13 00:01:05;;;;;;;8.63;6.30;;;;;;;;;;3617124;39;20027;-63
2021/05/13 00:03:32;;;;;;;7.97;6.53;;;;;;;;;;3616786;39;20043;-63
2021/05/13 00:05:58;;;;;;;8.48;6.10;;;;;;;;;;3616287;39;20027;-63
2021/05/13 00:08:23;;;;;;;6.57;5.72;;;;;;;;;;3616536;39;20019;-63
2021/05/13 00:10:49;;;;;;;7.75;6.22;;;;;;;;;;3616583;39;20039;-63
2021/05/13 00:13:14;;;;;;;8.88;6.65;;;;;;;;;;3616605;39;20031;-63
2021/05/13 00:15:42;;;;;;;6.15;5.10;;;;;;;;;;3615726;39;20366;-63
2021/05/13 00:18:09;;;;;;;7.70;5.35;;;;;;;;;;3616242;39;20450;-63
2021/05/13 00:20:42;;;;;;;6.53;5.43;;;;;;;;;;3616270;39;20032;-63
2021/05/13 00:23:08;;;;;;;6.05;4.80;;;;;;;;;;3616063;39;20091;-63
2021/05/13 00:25:33;;;;;;;5.72;4.30;;;;;;;;;;3616768;39;20027;-63
2021/05/13 00:27:59;;;;;;;7.05;4.65;;;;;;;;;;3616797;39;20043;-63
2021/05/13 00:30:24;;;;;;;5.15;4.30;;;;;;;;;;3616460;39;20023;-63
2021/05/13 00:32:50;;;;;;;6.65;4.65;;;;;;;;;;3616188;39;20031;-63
2021/05/13 00:35:18;;;;;;;5.13;3.78;;;;;;;;;;3607564;39;20496;-63
2021/05/13 00:37:44;;;;;;;7.05;4.00;;;;;;;;;;3616267;39;20054;-63
2021/05/13 00:40:12;;;;;;;4.60;3.85;;;;;;;;;;3616930;39;20019;-62
2021/05/13 00:42:38;;;;;;;9.48;4.20;;;;;;;;;;3615611;39;20135;-63
2021/05/13 00:45:05;;;;;;;4.43;3.35;;;;;;;;;;3616879;39;20046;-62
2021/05/13 00:47:34;;;;;;;4.20;3.40;;;;;;;;;;3616403;39;20027;-62
2021/05/13 00:49:59;;;;;;;6.07;4.50;;;;;;;;;;3616202;39;20370;-62
2021/05/13 00:52:25;;;;;;;4.68;4.18;;;;;;;;;;3606964;39;20060;-62
2021/05/13 00:54:50;;;;;;;5.03;3.83;;;;;;;;;;3616726;39;20083;-62
2021/05/13 00:57:16;;;;;;;4.22;3.47;;;;;;;;;;3616081;39;20811;-62
2021/05/13 00:59:48;;;;;;;5.18;3.53;;;;;;;;;;3615818;39;20075;-62
2021/05/13 01:02:14;;;;;;;7.22;3.53;;;;;;;;;;3615738;39;20043;-62
2021/05/13 01:04:39;;;;;;;6.95;3.78;;;;;;;;;;3616322;39;20046;-62
2021/05/13 01:07:05;;;;;;;5.30;3.70;;;;;;;;;;3615369;39;20851;-62
2021/05/13 01:09:32;;;;;;;5.88;3.50;;;;;;;;;;3616543;39;20039;-62
2021/05/13 01:12:02;;;;;;;5.05;3.60;;;;;;;;;;3616828;39;20034;-62
2021/05/13 01:19:37;;;;;;;7.78;5.15;;;;;;;;;;3615605;39;20046;-62
2021/05/13 01:22:02;;;;;;;8.43;5.47;;;;;;;;;;3616712;39;20031;-62
2021/05/13 01:24:28;;;;;;;7.68;6.40;;;;;;;;;;3616236;39;20064;-62
2021/05/13 01:26:53;;;;;;;10.45;6.30;;;;;;;;;;3615554;39;20069;-63
2021/05/13 01:29:22;;;;;;;6.95;6.22;;;;;;;;;;3616306;39;20039;-62
2021/05/13 01:31:49;;;;;;;6.93;4.45;;;;;;;;;;3616142;39;20027;-63
2021/05/13 01:34:15;;;;;;;5.38;4.07;;;;;;;;;;3616595;39;20035;-66
2021/05/13 01:36:40;;;;;;;5.70;4.72;;;;;;;;;;3615390;39;20124;-62
2021/05/13 01:39:08;;;;;;;4.60;3.67;;;;;;;;;;3616153;39;20050;-62
2021/05/13 01:41:34;;;;;;;4.70;3.65;;;;;;;;;;3616189;39;20255;-62
2021/05/13 01:44:00;;;;;;;5.10;3.90;;;;;;;;;;3615456;39;20039;-62
2021/05/13 01:46:25;;;;;;;20.10;5.25;;;;;;;;;;3616317;39;20113;-63
2021/05/13 01:48:51;;;;;;;29.67;6.07;;;;;;;;;;3616095;39;20031;-62
2021/05/13 01:51:16;;;;;;;18.88;6.03;;;;;;;;;;3616754;39;20043;-63
2021/05/13 01:53:43;;;;;;;9.43;6.30;;;;;;;;;;3615145;39;20511;-63
2021/05/13 01:56:10;;;;;;;7.15;5.93;;;;;;;;;;3616389;39;20046;-63
2021/05/13 01:58:36;;;;;;;7.60;5.93;;;;;;;;;;3617235;39;20031;-63
2021/05/13 02:01:04;;;;;;;6.72;5.85;;;;;;;;;;3616959;39;20386;-63
2021/05/13 02:03:29;;;;;;;7.22;5.25;;;;;;;;;;3616782;39;20039;-62
2021/05/13 02:05:54;;;;;;;5.97;5.35;;;;;;;;;;3618027;39;20031;-63
2021/05/13 02:08:20;;;;;;;5.85;5.25;;;;;;;;;;3617242;39;20063;-63
2021/05/13 02:10:46;;;;;;;6.78;6.10;;;;;;;;;;3616540;39;20034;-63
2021/05/13 02:13:12;;;;;;;12.40;6.90;;;;;;;;;;3617222;39;20536;-62
2021/05/13 02:15:38;;;;;;;12.32;7.10;;;;;;;;;;3617611;39;20378;-62
2021/05/13 02:18:04;;;;;;;7.95;7.15;;;;;;;;;;3617164;39;20027;-62
2021/05/13 02:20:29;;;;;;;10.65;7.47;;;;;;;;;;3616928;39;20035;-62
2021/05/13 02:22:57;;;;;;;9.77;8.77;;;;;;;;;;3617232;39;20044;-62
2021/05/13 02:25:23;;;;;;;10.15;6.85;;;;;;;;;;3617267;39;20027;-62
2021/05/13 02:27:48;;;;;;;10.35;7.68;;;;;;;;;;3616078;39;20062;-62
2021/05/13 02:30:14;;;;;;;11.82;6.72;;;;;;;;;;3617866;39;20298;-62
2021/05/13 02:32:40;;;;;;;9.55;6.07;;;;;;;;;;3617187;39;20032;-63
2021/05/13 02:35:11;;;;;;;8.15;5.82;;;;;;;;;;3608095;39;20105;-62
2021/05/13 02:37:36;;;;;;;7.18;5.95;;;;;;;;;;3614520;39;20042;-63
2021/05/13 02:40:06;;;;;;;7.85;6.30;;;;;;;;;;3608439;39;20031;-62
2021/05/13 02:42:32;;;;;;;7.28;5.72;;;;;;;;;;3617625;39;20129;-62
2021/05/13 02:44:57;;;;;;;12.55;5.78;;;;;;;;;;3616258;39;20043;-62
2021/05/13 02:47:23;;;;;;;6.72;5.90;;;;;;;;;;3617384;39;20054;-62
2021/05/13 02:49:49;;;;;;;8.15;6.07;;;;;;;;;;3617139;39;20381;-62
2021/05/13 02:52:14;;;;;;;6.70;5.75;;;;;;;;;;3616337;39;20028;-62
2021/05/13 02:54:40;;;;;;;10.52;5.63;;;;;;;;;;3617220;39;20046;-63
2021/05/13 02:57:05;;;;;;;5.88;4.88;;;;;;;;;;3617399;39;20055;-63
2021/05/13 03:02:08;;;;;;;9.18;5.53;;;;;;;;;;3616461;39;20640;-63
2021/05/13 03:04:34;;;;;;;6.45;4.68;;;;;;;;;;3607975;39;20050;-62
2021/05/13 03:07:00;;;;;;;7.53;5.50;;;;;;;;;;3617684;39;20047;-63
2021/05/13 03:09:25;;;;;;;7.47;5.28;;;;;;;;;;3616904;39;20035;-63
2021/05/13 03:11:51;;;;;;;7.28;6.05;;;;;;;;;;3616987;39;20136;-63
2021/05/13 03:14:16;;;;;;;8.48;5.53;;;;;;;;;;3617175;39;20655;-63
2021/05/13 03:16:42;;;;;;;7.43;4.93;;;;;;;;;;3616596;39;20393;-63
2021/05/13 03:19:13;;;;;;;5.57;4.60;;;;;;;;;;3616006;39;20091;-63
2021/05/13 03:21:42;;;;;;;6.18;4.50;;;;;;;;;;3616346;39;20035;-63
2021/05/13 03:29:07;;;;;;;6.35;4.65;;;;;;;;;;3615355;39;20043;-63
2021/05/13 03:31:33;;;;;;;5.75;4.82;;;;;;;;;;3617056;39;20147;-63
2021/05/13 03:34:00;;;;;;;6.13;4.80;;;;;;;;;;3617001;39;20246;-63
2021/05/13 03:36:25;;;;;;;6.95;5.07;;;;;;;;;;3616999;39;20042;-63
2021/05/13 03:38:51;;;;;;;6.68;5.10;;;;;;;;;;3616025;39;20051;-63
2021/05/13 03:41:16;;;;;;;8.10;5.22;;;;;;;;;;3607842;39;20055;-63
2021/05/13 03:43:41;;;;;;;5.90;5.15;;;;;;;;;;3617150;39;20031;-63
2021/05/13 03:46:07;;;;;;;10.18;6.07;;;;;;;;;;3615652;39;20429;-63
2021/05/13 03:48:32;;;;;;;6.70;5.20;;;;;;;;;;3618384;39;20263;-63
2021/05/13 03:50:58;;;;;;;7.70;4.97;;;;;;;;;;3619025;39;20250;-63
2021/05/13 03:53:23;;;;;;;6.47;5.13;;;;;;;;;;3617670;39;20278;-63
2021/05/13 03:55:52;;;;;;;7.82;5.25;;;;;;;;;;3618252;39;20047;-63
2021/05/13 03:58:21;;;;;;;10.95;5.20;;;;;;;;;;3617948;39;20179;-63
2021/05/13 04:03:12;;;;;;;7.85;5.70;;;;;;;;;;3619534;39;20447;-63
2021/05/13 04:05:38;;;;;;;7.13;5.93;;;;;;;;;;3616149;39;20281;-63
2021/05/13 04:08:07;;;;;;;6.85;5.65;;;;;;;;;;3618137;39;20023;-63
2021/05/13 04:10:32;;;;;;;5.97;5.35;;;;;;;;;;3618286;39;20075;-63
2021/05/13 04:13:01;;;;;;;7.43;5.75;;;;;;;;;;3618394;39;20026;-63
2021/05/13 04:15:26;;;;;;;7.32;4.53;;;;;;;;;;3616419;39;20406;-63
2021/05/13 04:17:52;;;;;;;9.70;5.60;;;;;;;;;;3619016;39;20030;-63
2021/05/13 04:20:17;;;;;;;7.70;6.15;;;;;;;;;;3618794;39;20031;-63
2021/05/13 04:22:42;;;;;;;7.55;6.38;;;;;;;;;;3617758;39;20140;-63
2021/05/13 04:25:08;;;;;;;6.78;5.45;;;;;;;;;;3618893;39;20093;-63
2021/05/13 04:27:34;;;;;;;8.50;6.57;;;;;;;;;;3618096;39;20190;-63
2021/05/13 04:29:59;;;;;;;5.97;4.28;;;;;;;;;;3619400;39;20043;-63
2021/05/13 04:32:25;;;;;;;5.80;4.55;;;;;;;;;;3616685;39;20035;-63
2021/05/13 04:34:50;;;;;;;8.50;4.43;;;;;;;;;;3616390;39;20092;-63
2021/05/13 04:37:15;;;;;;;6.95;5.32;;;;;;;;;;3616743;39;20047;-63
2021/05/13 04:39:41;;;;;;;8.18;4.93;;;;;;;;;;3618244;39;20532;-63
2021/05/13 04:42:07;;;;;;;5.45;4.38;;;;;;;;;;3618908;39;20251;-63
2021/05/13 04:44:34;;;;;;;5.90;4.53;;;;;;;;;;3616848;39;20031;-63
2021/05/13 04:47:00;;;;;;;5.85;4.63;;;;;;;;;;3617421;39;20314;-63
2021/05/13 04:49:26;;;;;;;9.10;4.45;;;;;;;;;;3607821;39;20039;-63
2021/05/13 04:51:52;;;;;;;5.55;4.78;;;;;;;;;;3616982;39;20028;-63
2021/05/13 04:54:18;;;;;;;8.60;4.72;;;;;;;;;;3617267;39;20100;-63
2021/05/13 04:56:45;;;;;;;6.82;4.25;;;;;;;;;;3618491;39;20063;-63
2021/05/13 04:59:11;;;;;;;12.15;4.38;;;;;;;;;;3606810;39;20042;-63
2021/05/13 05:01:37;;;;;;;8.50;4.55;;;;;;;;;;3618035;39;20034;-63
2021/05/13 05:04:03;;;;;;;16.85;5.22;;;;;;;;;;3617757;39;20038;-63
2021/05/13 05:06:29;;;;;;;8.00;4.55;;;;;;;;;;3617264;39;20091;-63
2021/05/13 05:08:55;;;;;;;5.45;4.40;;;;;;;;;;3617083;39;20350;-63
2021/05/13 05:11:22;;;;;;;7.68;4.35;;;;;;;;;;3617920;39;20039;-63
2021/05/13 05:13:47;;;;;;;6.82;4.90;;;;;;;;;;3617413;39;20051;-63
2021/05/13 05:16:13;;;;;;;5.40;4.45;;;;;;;;;;3616809;39;20131;-63
2021/05/13 05:18:38;;;;;;;6.53;5.07;;;;;;;;;;3618429;39;20047;-62
2021/05/13 05:21:04;;;;;;;8.65;5.80;;;;;;;;;;3617524;39;20028;-63
2021/05/13 05:23:30;;;;;;;7.38;5.35;;;;;;;;;;3617248;39;20032;-63
2021/05/13 05:25:56;;;;;;;5.88;5.20;;;;;;;;;;3617212;39;20027;-63
2021/05/13 05:28:23;;;;;;;6.10;5.07;;;;;;;;;;3617203;39;20110;-63
2021/05/13 05:30:49;;;;;;;6.15;5.55;;;;;;;;;;3606740;39;20351;-63
2021/05/13 05:33:15;;;;;;;7.15;6.13;;;;;;;;;;3618106;39;20036;-63
2021/05/13 05:35:40;;;;;;;8.95;7.03;;;;;;;;;;3620575;39;20071;-63
2021/05/13 05:38:07;;;;;;;6.63;5.85;;;;;;;;;;3619166;39;20062;-63
2021/05/13 05:40:33;;;;;;;7.95;6.50;;;;;;;;;;3619574;39;20051;-63
2021/05/13 05:42:58;;;;;;;8.93;6.68;;;;;;;;;;3618854;39;20023;-63
2021/05/13 05:45:25;;;;;;;11.10;8.25;;;;;;;;;;3618772;39;20471;-63
2021/05/13 05:47:59;;;;;;;10.68;7.78;;;;;;;;;;3618904;39;20050;-63
2021/05/13 05:50:28;;;;;;;7.78;6.88;;;;;;;;;;3618329;39;20027;-62
2021/05/13 05:52:54;;;;;;;11.95;6.70;;;;;;;;;;3612959;39;20355;-61
2021/05/13 05:55:20;;;;;;;8.55;7.07;;;;;;;;;;3617813;39;20090;-62
2021/05/13 05:57:45;;;;;;;11.27;7.43;;;;;;;;;;3616949;39;20065;-62
2021/05/13 06:00:11;;;;;;;17.90;8.70;;;;;;;;;;3616830;39;20035;-62
2021/05/13 06:02:37;;;;;;;9.68;7.95;;;;;;;;;;3616671;39;20042;-62
2021/05/13 06:05:03;;;;;;;11.75;7.97;;;;;;;;;;3617765;39;20023;-62
2021/05/13 06:07:28;;;;;;;16.30;9.07;;;;;;;;;;3615206;39;20084;-62
2021/05/13 06:09:55;;;;;;;10.43;8.65;;;;;;;;;;3615811;39;20028;-62
2021/05/13 06:12:21;;;;;;;9.70;8.70;;;;;;;;;;3618054;39;20302;-62
2021/05/13 06:14:46;;;;;;;9.50;8.55;;;;;;;;;;3616835;39;20035;-62
2021/05/13 06:17:12;;;;;;;10.50;8.88;;;;;;;;;;3616928;39;20032;-62
2021/05/13 06:19:37;;;;;;;9.93;8.93;;;;;;;;;;3617698;39;20035;-62
2021/05/13 06:22:03;;;;;;;10.60;9.23;;;;;;;;;;3617854;39;20047;-62
2021/05/13 06:24:28;;;;;;;11.90;9.77;;;;;;;;;;3617393;39;20111;-62
2021/05/13 06:27:07;;;;;;;10.90;8.85;;;;;;;;;;3607323;39;20119;-61
2021/05/13 06:29:33;;;;;;;17.67;9.23;;;;;;;;;;3613160;39;20019;-62
2021/05/13 06:31:59;;;;;;;24.67;9.48;;;;;;;;;;3614379;39;20458;-62
2021/05/13 06:34:25;;;;;;;11.80;9.50;;;;;;;;;;3615265;39;20027;-63
2021/05/13 06:36:53;;;;;;;11.02;9.15;;;;;;;;;;3607210;39;20390;-62
2021/05/13 06:39:19;;;;;;;17.30;9.07;;;;;;;;;;3617480;39;20027;-62
2021/05/13 06:41:45;;;;;;;13.13;9.50;;;;;;;;;;3617071;39;20579;-62
2021/05/13 06:44:10;;;;;;;18.80;10.57;;;;;;;;;;3616916;39;20071;-62
2021/05/13 06:46:36;;;;;;;9.95;8.95;;;;;;;;;;3617682;39;20324;-62
2021/05/13 06:49:01;;;;;;;10.48;9.38;;;;;;;;;;3608074;39;20038;-62
2021/05/13 06:51:27;;;;;;;10.52;9.52;;;;;;;;;;3616385;39;20270;-62
2021/05/13 06:53:52;;;;;;;13.15;10.05;;;;;;;;;;3617700;39;20063;-62
2021/05/13 06:56:18;;;;;;;11.05;9.68;;;;;;;;;;3617860;39;20350;-62
2021/05/13 06:58:45;;;;;;;11.75;10.57;;;;;;;;;;3617125;39;20043;-62
2021/05/13 07:01:10;;;;;;;11.10;9.95;;;;;;;;;;3615596;39;20039;-62
2021/05/13 07:03:36;;;;;;;12.75;11.38;;;;;;;;;;3616319;39;20038;-63
2021/05/13 07:06:01;;;;;;;12.80;10.35;;;;;;;;;;3617596;39;20119;-62
2021/05/13 07:08:27;;;;;;;12.52;10.48;;;;;;;;;;3615595;39;20373;-62
2021/05/13 07:10:53;;;;;;;14.63;11.07;;;;;;;;;;3616950;39;20043;-62
2021/05/13 07:13:19;;;;;;;12.73;11.05;;;;;;;;;;3617394;39;20031;-62
2021/05/13 07:15:44;;;;;;;12.77;11.48;;;;;;;;;;3615384;39;20405;-62
2021/05/13 07:18:16;;;;;;;12.65;11.45;;;;;;;;;;3616894;39;20031;-62
2021/05/13 07:20:43;;;;;;;15.93;12.45;;;;;;;;;;3615796;39;20395;-62
2021/05/13 07:23:09;;;;;;;12.80;11.50;;;;;;;;;;3607628;39;20042;-63
2021/05/13 07:25:35;;;;;;;14.50;13.02;;;;;;;;;;3615806;39;20047;-63
2021/05/13 07:28:01;;;;;;;15.73;13.70;;;;;;;;;;3615067;39;20027;-63
2021/05/13 07:30:27;;;;;;;15.23;13.48;;;;;;;;;;3615295;39;20050;-63
2021/05/13 07:32:53;;;;;;;15.05;13.45;;;;;;;;;;3614732;39;20035;-62
2021/05/13 07:35:19;;;;;;;15.27;13.77;;;;;;;;;;3616083;39;20172;-63
2021/05/13 07:37:46;;;;;;;16.23;14.52;;;;;;;;;;3606335;39;20035;-63
2021/05/13 07:40:12;;;;;;;18.58;15.38;;;;;;;;;;3614418;39;20038;-63
2021/05/13 07:42:38;;;;;;;19.40;13.98;;;;;;;;;;3616088;39;20043;-63
2021/05/13 07:45:06;;;;;;;15.88;14.13;;;;;;;;;;3615995;39;20266;-63
2021/05/13 07:47:37;;;;;;;17.25;15.45;;;;;;;;;;3615815;39;20274;-63
2021/05/13 07:50:02;;;;;;;;;;;;;;;;;;3617722;39;20027;-63
2021/05/13 07:52:28;;;;;;;18.13;16.33;;;;;;;;;;3617081;39;20340;-63
2021/05/13 07:54:53;;;;;;;17.83;15.50;;;;;;;;;;3607298;39;20035;-63
2021/05/13 07:57:18;;;;;;;18.58;15.45;;;;;;;;;;3616630;39;20035;-63
2021/05/13 07:59:44;;;;;;;21.38;17.25;;;;;;;;;;3616088;39;20075;-63
2021/05/13 08:02:11;;;;;;;20.00;17.77;;;;;;;;;;3616774;39;20054;-63
2021/05/13 08:04:36;;;;;;;20.75;18.30;;;;;;;;;;3616284;39;20043;-63
2021/05/13 08:07:01;;;;;;;21.40;19.05;;;;;;;;;;3616374;39;20027;-63
2021/05/13 08:09:27;;;;;;;22.13;19.63;;;;;;;;;;3616753;39;20053;-63
2021/05/13 08:11:52;;;;;;;22.75;19.13;;;;;;;;;;3616758;39;20043;-63
2021/05/13 08:14:18;;;;;;;20.40;17.77;;;;;;;;;;3615865;39;20031;-63
2021/05/13 08:16:43;;;;;;;21.48;19.23;;;;;;;;;;3616025;39;20048;-63
2021/05/13 08:19:09;;;;;;;20.65;18.65;;;;;;;;;;3616318;39;20027;-63
2021/05/13 08:21:35;;;;;;;20.83;18.77;;;;;;;;;;3616038;39;20031;-63
2021/05/13 08:24:01;;;;;;;19.52;17.42;;;;;;;;;;3616033;39;20035;-63
2021/05/13 08:26:28;;;;;;;22.85;18.75;;;;;;;;;;3606960;39;20054;-63
2021/05/13 08:28:54;;;;;;;20.70;18.55;;;;;;;;;;3616851;39;20362;-63
2021/05/13 08:31:19;;;;;;;26.48;18.13;;;;;;;;;;3616460;39;20034;-63
2021/05/13 08:33:44;;;;;;;21.52;19.42;;;;;;;;;;3615509;39;20040;-63
2021/05/13 08:36:10;;;;;;;27.58;18.95;;;;;;;;;;3607330;39;20019;-63
2021/05/13 08:38:35;;;;;;;19.13;17.23;;;;;;;;;;3616658;39;20039;-63
2021/05/13 08:41:01;;;;;;;19.13;16.45;;;;;;;;;;3616272;39;20031;-63
2021/05/13 08:43:29;;;;;;;19.48;17.13;;;;;;;;;;3616672;39;20043;-63
2021/05/13 08:45:57;;;;;;;19.38;16.25;;;;;;;;;;3616363;39;20037;-63
2021/05/13 08:48:28;;;;;;;16.77;14.85;;;;;;;;;;3615523;39;20071;-63
2021/05/13 08:50:54;;;;;;;19.60;16.83;;;;;;;;;;3617471;39;20034;-63
2021/05/13 08:53:20;;;;;;;20.60;15.82;;;;;;;;;;3618810;39;20058;-63
2021/05/13 08:55:46;;;;;;;19.13;15.73;;;;;;;;;;3620549;39;20046;-63
2021/05/13 08:58:11;;;;;;;16.83;13.73;;;;;;;;;;3619649;39;20041;-63
2021/05/13 09:00:37;;;;;;;17.77;13.23;;;;;;;;;;3618327;39;20023;-63
2021/05/13 09:03:03;;;;;;;16.15;13.75;;;;;;;;;;3618276;39;20060;-63
2021/05/13 09:05:28;;;;;;;14.80;13.40;;;;;;;;;;3618649;39;20040;-63
2021/05/13 09:07:54;;;;;;;14.90;13.23;;;;;;;;;;3619064;39;20035;-63
2021/05/13 09:10:20;;;;;;;25.13;14.65;;;;;;;;;;3619445;39;20043;-63
2021/05/13 09:12:47;;;;;;;16.67;12.68;;;;;;;;;;3619475;39;20051;-63
2021/05/13 09:15:15;;;;;;;16.90;12.90;;;;;;;;;;3619899;39;20031;-63
2021/05/13 09:17:43;;;;;;;15.95;11.02;;;;;;;;;;3618845;39;20091;-63
2021/05/13 09:20:28;;;;;;;21.05;12.73;;;;;;;;;;3617421;39;20038;-63
2021/05/13 09:23:11;;;;;;;17.15;11.85;;;;;;;;;;3609598;39;20071;-63
2021/05/13 09:25:36;;;;;;;12.23;9.85;;;;;;;;;;3614721;39;20143;-63
2021/05/13 09:28:02;;;;;;;14.30;9.50;;;;;;;;;;3606411;39;20047;-63
2021/05/13 09:30:29;;;;;;;13.18;10.93;;;;;;;;;;3616079;39;20039;-63
2021/05/13 09:32:59;;;;;;;14.07;10.40;;;;;;;;;;3603796;39;20367;-63
2021/05/13 09:35:31;;;;;;;14.87;10.33;;;;;;;;;;3615490;39;20457;-63
2021/05/13 09:37:59;;;;;;;21.33;11.30;;;;;;;;;;3619040;39;20302;-64
2021/05/13 09:40:39;;;;;;;12.85;10.35;;;;;;;;;;3615878;39;20130;-64
2021/05/13 09:43:19;;;;;;;15.05;10.20;;;;;;;;;;3617403;39;20043;-63
2021/05/13 09:45:50;;;;;;;14.70;8.93;;;;;;;;;;3615983;39;20047;-63
2021/05/13 09:48:34;;;;;;;14.02;9.93;;;;;;;;;;3615359;39;20131;-63
2021/05/13 09:51:28;;;;;;;12.93;8.48;;;;;;;;;;3615732;39;20076;-63
2021/05/13 09:54:04;;;;;;;18.83;9.45;;;;;;;;;;3614897;39;20042;-64
2021/05/13 09:56:30;;;;;;;14.07;8.65;;;;;;;;;;3615776;39;20420;-63
2021/05/13 09:58:57;;;;;;;16.90;8.77;;;;;;;;;;3615197;39;20043;-64
2021/05/13 10:01:23;;;;;;;13.77;8.18;;;;;;;;;;3618114;39;20139;-64
2021/05/13 10:03:51;;;;;;;11.57;8.98;;;;;;;;;;3618178;39;20027;-64
2021/05/13 10:06:17;;;;;;;16.83;9.40;;;;;;;;;;3605215;39;20035;-64
2021/05/13 10:08:42;;;;;;;15.00;8.18;;;;;;;;;;3617090;39;20143;-64
2021/05/13 10:11:09;;;;;;;8.98;6.65;;;;;;;;;;3618331;39;20042;-64
2021/05/13 10:13:35;;;;;;;11.25;6.70;;;;;;;;;;3618720;39;20031;-64
2021/05/13 10:16:03;;;;;;;13.50;4.28;;;;;;;;;;3608207;39;20156;-64
2021/05/13 10:18:41;;;;;;;9.65;3.80;;;;;;;;;;3616344;39;20039;-64
2021/05/13 10:21:20;;;;;;;5.90;3.78;;;;;;;;;;3618268;39;20043;-63
2021/05/13 10:23:46;;;;;;;7.35;3.42;;;;;;;;;;3618079;39;20108;-64
2021/05/13 10:26:30;;;;;;;5.95;3.50;;;;;;;;;;3615926;39;20067;-64
2021/05/13 10:28:56;;;;;;;10.93;5.50;;;;;;;;;;3617915;39;20042;-64
2021/05/13 10:31:35;;;;;;;6.75;4.15;;;;;;;;;;3617784;39;20046;-64
2021/05/13 10:34:00;;;;;;;8.13;3.00;;;;;;;;;;3617379;39;20284;-63
2021/05/13 10:36:26;;;;;;;5.95;3.75;;;;;;;;;;3616842;39;20031;-64
2021/05/13 10:39:06;;;;;;;9.90;2.55;;;;;;;;;;3617298;39;20034;-63
2021/05/13 10:41:41;;;;;;;16.58;5.88;;;;;;;;;;3615736;39;20035;-64
2021/05/13 10:44:09;;;;;;;6.68;2.67;;;;;;;;;;3607524;39;20068;-64
2021/05/13 10:46:36;;;;;;;9.00;3.00;;;;;;;;;;3619052;39;20065;-64
2021/05/13 10:49:25;;;;;;;24.42;17.67;;;;;;;;;;3606892;39;20039;-63
2021/05/13 10:52:12;;;;;;;6.93;4.03;;;;;;;;;;3616264;39;20139;-64
2021/05/13 10:54:44;;;;;;;8.82;3.45;;;;;;;;;;3615299;39;20039;-64
2021/05/13 10:57:20;;;;;;;7.03;3.53;;;;;;;;;;3616119;39;20031;-64
2021/05/13 11:00:05;;;;;;;4.65;1.65;;;;;;;;;;3616391;39;20035;-64
2021/05/13 11:02:37;;;;;;;6.40;1.85;;;;;;;;;;3615488;39;20046;-64
2021/05/13 11:05:28;;;;;;;6.88;2.20;;;;;;;;;;3615025;39;20042;-64
2021/05/13 11:07:55;;;;;;;4.45;1.70;;;;;;;;;;3616292;39;20049;-64
2021/05/13 11:10:20;;;;;;;5.45;1.52;;;;;;;;;;3617713;39;20031;-64
2021/05/13 11:12:46;;;;;;;5.60;1.80;;;;;;;;;;3608057;39;20041;-64
2021/05/13 11:15:29;;;;;;;6.85;2.55;;;;;;;;;;3608701;39;20038;-64
2021/05/13 11:20:29;;;;;;;11.27;2.53;;;;;;;;;;3617795;39;20510;-63
2021/05/13 11:22:54;;;;;;;6.05;2.55;;;;;;;;;;3616317;39;20043;-63
2021/05/13 11:25:20;;;;;;;7.00;2.67;;;;;;;;;;3606422;39;20046;-64
2021/05/13 11:27:46;;;;;;;7.40;2.22;;;;;;;;;;3616442;39;20039;-64
2021/05/13 11:30:13;;;;;;;4.68;1.40;;;;;;;;;;3615458;39;20042;-64
2021/05/13 11:32:38;;;;;;;7.20;2.00;;;;;;;;;;3616318;39;20277;-66
2021/05/13 11:35:05;;;;;;;6.82;2.28;;;;;;;;;;3608577;39;20041;-65
2021/05/13 11:37:41;;;;;;;9.70;2.08;;;;;;;;;;3608827;39;20358;-64
2021/05/13 11:40:24;;;;;;;6.35;1.98;;;;;;;;;;3608787;39;20093;-64
2021/05/13 11:42:50;;;;;;;4.13;1.30;;;;;;;;;;3617234;39;20035;-65
2021/05/13 11:45:23;;;;;;;5.55;1.52;;;;;;;;;;3618227;39;20480;-64
2021/05/13 11:47:49;;;;;;;4.63;2.00;;;;;;;;;;3618489;39;20402;-63
2021/05/13 11:50:27;;;;;;;5.28;1.80;;;;;;;;;;3618263;39;20035;-65
2021/05/13 11:53:09;;;;;;;5.78;1.67;;;;;;;;;;3615223;39;20168;-64
2021/05/13 11:55:35;;;;;;;4.97;1.83;;;;;;;;;;3615006;39;20043;-64
2021/05/13 11:58:01;;;;;;;12.45;1.95;;;;;;;;;;3605094;39;20047;-64
2021/05/13 12:00:26;;;;;;;4.53;1.45;;;;;;;;;;3614726;39;20050;-64
2021/05/13 12:03:12;;;;;;;6.30;1.50;;;;;;;;;;3614255;39;20072;-63
2021/05/13 12:05:51;;;;;;;4.30;1.10;;;;;;;;;;3612952;39;20258;-63
2021/05/13 12:08:19;;;;;;;5.53;1.75;;;;;;;;;;3614128;39;20413;-63
2021/05/13 12:10:44;;;;;;;4.88;1.30;;;;;;;;;;3615214;39;20039;-63
2021/05/13 12:13:10;;;;;;;4.97;1.30;;;;;;;;;;3612203;39;20053;-63
2021/05/13 12:15:36;;;;;;;2.60;1.20;;;;;;;;;;3613753;39;20040;-63
2021/05/13 12:18:02;;;;;;;5.00;1.83;;;;;;;;;;3614119;39;20116;-63
2021/05/13 12:20:27;;;;;;;8.55;2.05;;;;;;;;;;3613956;39;20403;-64
2021/05/13 12:22:53;;;;;;;5.70;1.85;;;;;;;;;;3604369;39;20659;-62
2021/05/13 12:25:18;;;;;;;21.42;2.38;;;;;;;;;;3615081;39;20047;-63
2021/05/13 12:27:44;;;;;;;5.35;1.75;;;;;;;;;;3613595;39;20388;-62
2021/05/13 12:30:11;;;;;;;6.75;1.58;;;;;;;;;;3614062;39;20042;-64
2021/05/13 12:32:37;;;;;;;6.03;2.22;;;;;;;;;;3614002;39;20043;-63
2021/05/13 12:35:22;;;;;;;4.97;2.20;;;;;;;;;;3615060;39;20493;-63
2021/05/13 12:37:47;;;;;;;6.97;2.03;;;;;;;;;;3614389;39;20207;-63
2021/05/13 12:40:14;;;;;;;4.18;1.85;;;;;;;;;;3614484;39;20096;-63
2021/05/13 12:42:40;;;;;;;6.10;2.35;;;;;;;;;;3614333;39;20067;-63
2021/05/13 12:45:13;;;;;;;7.80;1.77;;;;;;;;;;3613988;39;20450;-63
2021/05/13 12:47:40;;;;;;;5.90;1.80;;;;;;;;;;3614527;39;20279;-63
2021/05/13 12:50:05;;;;;;;8.13;1.60;;;;;;;;;;3613803;39;20043;-63
2021/05/13 12:52:31;;;;;;;5.13;1.65;;;;;;;;;;3614349;39;20143;-63
2021/05/13 12:55:35;;;;;;;8.80;2.30;;;;;;;;;;3613962;39;20063;-63
2021/05/13 12:58:09;;;;;;;6.45;1.67;;;;;;;;;;3591485;39;20051;-64
2021/05/13 13:00:34;;;;;;;3.45;1.15;;;;;;;;;;3614736;39;20286;-64
2021/05/13 13:03:08;;;;;;;4.13;1.40;;;;;;;;;;3615093;39;20080;-64
2021/05/13 13:05:34;;;;;;;6.40;1.52;;;;;;;;;;3612277;39;20127;-63
2021/05/13 13:08:00;;;;;;;9.32;1.85;;;;;;;;;;3615036;39;20308;-63
2021/05/13 13:10:30;;;;;;;8.18;2.20;;;;;;;;;;3614780;39;20058;-63
2021/05/13 13:13:13;;;;;;;4.70;1.75;;;;;;;;;;3615614;39;20039;-64
2021/05/13 13:15:48;;;;;;;5.45;1.75;;;;;;;;;;3615626;39;20027;-64
2021/05/13 13:18:15;;;;;;;6.05;1.75;;;;;;;;;;3615853;39;20039;-64
2021/05/13 13:20:42;;;;;;;8.70;2.17;;;;;;;;;;3616271;39;20028;-64
2021/05/13 13:23:32;;;;;;;6.03;1.88;;;;;;;;;;3614802;39;20135;-64
2021/05/13 13:26:05;;;;;;;4.90;1.92;;;;;;;;;;3616299;39;20459;-64
2021/05/13 13:28:32;;;;;;;5.55;1.67;;;;;;;;;;3615378;39;20267;-63
2021/05/13 13:31:01;;;;;;;4.68;1.50;;;;;;;;;;3614985;39;20373;-64
2021/05/13 13:33:28;;;;;;;6.47;1.60;;;;;;;;;;3615585;39;20124;-64
2021/05/13 13:35:55;;;;;;;4.15;1.55;;;;;;;;;;3615538;39;20059;-65
2021/05/13 13:38:21;;;;;;;5.00;1.30;;;;;;;;;;3614751;39;20072;-64
2021/05/13 13:40:51;;;;;;;5.82;1.83;;;;;;;;;;3615295;39;20043;-63
2021/05/13 13:43:17;;;;;;;4.82;1.58;;;;;;;;;;3615246;39;20027;-63
2021/05/13 13:45:43;;;;;;;4.13;1.40;;;;;;;;;;3613431;39;20080;-63
2021/05/13 13:48:11;;;;;;;4.35;1.42;;;;;;;;;;3614152;39;20031;-63
2021/05/13 13:50:38;;;;;;;4.57;1.45;;;;;;;;;;3614875;39;20059;-63
2021/05/13 13:53:06;;;;;;;13.75;1.80;;;;;;;;;;3615322;39;20301;-64
2021/05/13 13:55:32;;;;;;;3.30;1.20;;;;;;;;;;3616875;39;20059;-63
2021/05/13 13:57:57;;;;;;;3.78;1.17;;;;;;;;;;3617473;39;20143;-63
2021/05/13 14:00:23;;;;;;;3.92;1.50;;;;;;;;;;3617907;39;20135;-64
2021/05/13 14:02:52;;;;;;;5.80;1.70;;;;;;;;;;3617030;39;20043;-63
2021/05/13 14:05:21;;;;;;;4.68;1.05;;;;;;;;;;3617137;39;20459;-63
2021/05/13 14:07:47;;;;;;;4.22;1.30;;;;;;;;;;3617021;39;20136;-64
2021/05/13 14:10:15;;;;;;;3.72;1.38;;;;;;;;;;3616507;39;20128;-62
2021/05/13 14:12:40;;;;;;;3.58;1.25;;;;;;;;;;3616309;39;20047;-65
2021/05/13 14:15:07;;;;;;;2.88;1.00;;;;;;;;;;3616363;39;20034;-64
2021/05/13 14:17:33;;;;;;;2.95;1.02;;;;;;;;;;3616415;39;20020;-63
2021/05/13 14:20:00;;;;;;;6.78;1.27;;;;;;;;;;3617187;39;20243;-63
2021/05/13 14:22:25;;;;;;;5.32;1.70;;;;;;;;;;3615969;39;20032;-63
2021/05/13 14:24:51;;;;;;;6.35;1.75;;;;;;;;;;3616633;39;20031;-64
2021/05/13 14:27:16;;;;;;;4.45;1.63;;;;;;;;;;3617053;39;20031;-64
2021/05/13 14:29:41;;;;;;;3.83;1.25;;;;;;;;;;3615614;39;20053;-64
2021/05/13 14:32:07;;;;;;;5.18;1.38;;;;;;;;;;3607325;39;20409;-65
2021/05/13 14:34:32;;;;;;;3.10;1.20;;;;;;;;;;3616420;39;20023;-64
2021/05/13 14:36:58;;;;;;;3.72;1.33;;;;;;;;;;3617248;39;20036;-65
2021/05/13 14:39:23;;;;;;;3.88;1.30;;;;;;;;;;3616198;39;20043;-64
2021/05/13 14:41:49;;;;;;;3.80;1.20;;;;;;;;;;3607819;39;20117;-65
2021/05/13 14:44:14;;;;;;;3.13;1.45;;;;;;;;;;3617661;39;20071;-65
2021/05/13 14:46:39;;;;;;;5.10;1.35;;;;;;;;;;3616206;39;20038;-65
2021/05/13 14:49:23;;;;;;;3.88;1.27;;;;;;;;;;3617630;39;20043;-65
2021/05/13 14:51:49;;;;;;;3.03;1.05;;;;;;;;;;3616917;39;20362;-65
2021/05/13 14:54:15;;;;;;;4.53;1.40;;;;;;;;;;3617443;39;20035;-64
2021/05/13 14:56:40;;;;;;;3.70;1.15;;;;;;;;;;3613663;39;20133;-66